createdAt,value
2023-02-15T00:00:41.363Z,63.58
2023-02-15T00:03:42.818Z,61.35
2023-02-15T00:06:44.337Z,57.15
2023-02-15T00:09:47.132Z,63.13
2023-02-15T00:12:48.666Z,58.08
2023-02-15T00:15:50.097Z,59.30
2023-02-15T00:18:52.779Z,68.28
2023-02-15T00:21:54.293Z,62.75
2023-02-15T00:24:56.085Z,61.58
2023-02-15T00:27:57.518Z,141.73
2023-02-15T00:31:10.659Z,202.23
2023-02-15T00:34:16.849Z,262.85
2023-02-15T00:37:18.367Z,317.42
2023-02-15T00:40:22.738Z,184.38
2023-02-15T00:43:25.018Z,117.10
2023-02-15T00:46:26.604Z,129.57
2023-02-15T00:49:28.040Z,122.78
2023-02-15T00:52:29.747Z,111.90
2023-02-15T00:55:31.217Z,163.32
2023-02-15T00:58:33.224Z,169.75
2023-02-15T01:01:34.704Z,152.82
2023-02-15T01:04:36.211Z,179.02
2023-02-15T01:07:37.680Z,140.93
2023-02-15T01:10:39.128Z,135.00
2023-02-15T01:13:41.547Z,155.38
2023-02-15T01:16:42.984Z,151.15
2023-02-15T01:19:44.465Z,184.30
2023-02-15T01:22:45.905Z,173.00
2023-02-15T01:25:47.548Z,184.75
2023-02-15T01:28:49.018Z,140.57
2023-02-15T01:31:51.752Z,224.43
2023-02-15T01:34:53.737Z,262.95
2023-02-15T01:37:56.444Z,236.38
2023-02-15T01:40:57.886Z,185.53
2023-02-15T01:44:01.892Z,162.98
2023-02-15T01:47:03.399Z,156.65
2023-02-15T01:50:27.636Z,142.27
2023-02-15T01:53:35.402Z,169.98
2023-02-15T01:56:40.522Z,142.13
2023-02-15T01:59:46.836Z,221.68
2023-02-15T02:02:53.041Z,146.73
2023-02-15T02:05:56.999Z,167.05
2023-02-15T02:08:58.756Z,129.27
2023-02-15T02:12:00.955Z,138.80
2023-02-15T02:15:02.602Z,145.77
2023-02-15T02:18:21.650Z,126.18
2023-02-15T02:21:27.650Z,107.57
2023-02-15T02:24:57.182Z,127.07
2023-02-15T02:28:34.830Z,87.55
2023-02-15T02:31:56.126Z,135.00
2023-02-15T02:35:23.164Z,107.53
2023-02-15T02:38:48.776Z,165.00
2023-02-15T02:42:12.319Z,171.55
2023-02-15T02:45:26.300Z,242.40
2023-02-15T02:48:32.947Z,211.38
2023-02-15T02:51:34.404Z,179.02
2023-02-15T02:54:36.693Z,194.05
2023-02-15T02:57:44.109Z,251.52
2023-02-15T03:00:51.600Z,219.93
2023-02-15T03:04:10.958Z,233.55
2023-02-15T03:07:19.186Z,182.80
2023-02-15T03:10:24.673Z,195.35
2023-02-15T03:13:27.438Z,191.15
2023-02-15T03:16:29.622Z,191.73
2023-02-15T03:19:34.890Z,190.70
2023-02-15T03:23:00.593Z,194.48
2023-02-15T03:26:08.563Z,235.25
2023-02-15T03:29:14.202Z,225.45
2023-02-15T03:32:16.613Z,177.10
2023-02-15T03:35:22.205Z,199.82
2023-02-15T03:38:33.430Z,198.68
2023-02-15T03:41:41.451Z,177.85
2023-02-15T03:45:01.332Z,183.63
2023-02-15T03:48:03.937Z,157.18
2023-02-15T03:51:11.529Z,224.90
2023-02-15T03:54:20.275Z,197.18
2023-02-15T03:57:24.855Z,174.25
2023-02-15T04:00:26.579Z,191.07
2023-02-15T04:03:39.193Z,207.82
2023-02-15T04:06:40.611Z,156.95
2023-02-15T04:09:42.027Z,183.65
2023-02-15T04:12:43.467Z,219.45
2023-02-15T04:15:44.928Z,162.88
2023-02-15T04:18:46.327Z,279.42
2023-02-15T04:21:47.758Z,184.23
2023-02-15T04:24:49.216Z,189.05
2023-02-15T04:27:53.068Z,198.15
2023-02-15T04:30:54.493Z,154.68
2023-02-15T04:33:55.878Z,208.57
2023-02-15T04:36:57.267Z,199.48
2023-02-15T04:39:58.767Z,231.48
2023-02-15T04:43:00.199Z,295.98
2023-02-15T04:46:02.014Z,218.60
2023-02-15T04:49:04.025Z,227.15
2023-02-15T04:52:05.418Z,176.30
2023-02-15T04:55:07.493Z,176.70
2023-02-15T04:58:08.888Z,197.98
2023-02-15T05:01:11.030Z,174.10
2023-02-15T05:04:12.496Z,174.60
2023-02-15T05:07:13.975Z,188.40
2023-02-15T05:10:15.632Z,169.75
2023-02-15T05:13:17.507Z,203.95
2023-02-15T05:16:19.165Z,192.70
2023-02-15T05:19:20.929Z,171.32
2023-02-15T05:22:22.339Z,156.55
2023-02-15T05:25:23.803Z,176.80
2023-02-15T05:28:27.283Z,158.38
2023-02-15T05:34:30.979Z,202.70
2023-02-15T05:37:32.431Z,198.85
2023-02-15T05:40:33.911Z,242.50
2023-02-15T05:43:35.643Z,192.65
2023-02-15T05:46:37.128Z,228.20
2023-02-15T05:49:38.577Z,241.40
2023-02-15T05:52:40.005Z,204.82
2023-02-15T05:55:41.977Z,144.82
2023-02-15T05:58:43.462Z,184.02
2023-02-15T06:01:44.854Z,180.68
2023-02-15T06:04:46.241Z,212.10
2023-02-15T06:07:47.659Z,213.60
2023-02-15T06:10:49.117Z,163.75
2023-02-15T06:13:50.939Z,195.40
2023-02-15T06:16:52.385Z,301.48
2023-02-15T06:19:53.826Z,270.35
2023-02-15T06:22:55.239Z,188.88
2023-02-15T06:25:56.682Z,165.05
2023-02-15T06:28:58.103Z,183.43
2023-02-15T06:31:59.689Z,162.85
2023-02-15T06:35:01.539Z,159.75
2023-02-15T06:38:03.633Z,139.65
2023-02-15T06:41:05.038Z,170.80
2023-02-15T06:44:06.504Z,175.63
2023-02-15T06:47:07.924Z,176.05
2023-02-15T06:50:10.063Z,182.48
2023-02-15T06:53:11.555Z,145.35
2023-02-15T06:56:12.955Z,190.00
2023-02-15T06:59:14.449Z,194.27
2023-02-15T07:02:16.324Z,212.82
2023-02-15T07:05:17.734Z,176.38
2023-02-15T07:08:19.168Z,166.88
2023-02-15T07:11:20.620Z,162.82
2023-02-15T07:14:22.129Z,197.60
2023-02-15T07:17:38.787Z,149.43
2023-02-15T07:20:40.610Z,219.93
2023-02-15T07:23:42.010Z,270.25
2023-02-15T07:26:43.448Z,160.23
2023-02-15T07:29:44.866Z,260.40
2023-02-15T07:32:46.396Z,162.05
2023-02-15T07:35:49.456Z,150.05
2023-02-15T07:38:50.893Z,153.35
2023-02-15T07:41:52.437Z,156.93
2023-02-15T07:44:53.902Z,163.10
2023-02-15T07:47:55.367Z,180.60
2023-02-15T07:51:03.452Z,164.55
2023-02-15T07:54:04.871Z,133.10
2023-02-15T07:57:06.259Z,131.63
2023-02-15T08:00:08.223Z,112.95
2023-02-15T08:03:14.157Z,150.20
2023-02-15T08:06:15.724Z,191.38
2023-02-15T08:09:17.107Z,177.00
2023-02-15T08:12:18.495Z,171.50
2023-02-15T08:15:19.903Z,160.70
2023-02-15T08:18:21.358Z,154.88
2023-02-15T08:21:24.924Z,160.05
2023-02-15T08:24:29.047Z,162.82
2023-02-15T08:27:30.474Z,179.23
2023-02-15T08:30:32.946Z,196.70
2023-02-15T08:33:37.986Z,156.57
2023-02-15T08:39:40.677Z,294.25
2023-02-15T08:42:42.078Z,175.45
2023-02-15T08:45:43.544Z,182.18
2023-02-15T08:48:45.811Z,267.65
2023-02-15T08:51:48.346Z,159.43
2023-02-15T08:54:49.761Z,156.97
2023-02-15T08:57:51.149Z,167.70
2023-02-15T09:00:52.884Z,168.55
2023-02-15T09:04:03.136Z,172.18
2023-02-15T09:07:04.589Z,186.23
2023-02-15T09:10:06.859Z,248.38
2023-02-15T09:13:08.317Z,131.48
2023-02-15T09:16:10.470Z,163.35
2023-02-15T09:19:11.912Z,178.02
2023-02-15T09:22:13.356Z,160.95
2023-02-15T09:25:14.885Z,210.43
2023-02-15T09:28:16.326Z,148.27
2023-02-15T09:31:20.459Z,193.07
2023-02-15T09:34:23.255Z,191.15
2023-02-15T09:37:24.673Z,195.52
2023-02-15T09:40:27.513Z,130.48
2023-02-15T09:43:45.718Z,178.20
2023-02-15T09:46:57.149Z,138.45
2023-02-15T09:50:44.223Z,117.72
2023-02-15T09:54:10.307Z,170.15
2023-02-15T09:57:28.706Z,92.43
2023-02-15T10:00:45.541Z,185.82
2023-02-15T10:04:10.594Z,107.63
2023-02-15T10:07:39.792Z,109.57
2023-02-15T10:11:03.714Z,107.13
2023-02-15T10:14:32.674Z,109.90
2023-02-15T10:17:55.342Z,125.13
2023-02-15T10:21:22.817Z,101.45
2023-02-15T10:24:50.193Z,87.95
2023-02-15T10:27:51.891Z,96.10
2023-02-15T10:31:17.496Z,74.88
2023-02-15T10:34:38.187Z,133.70
2023-02-15T10:37:54.326Z,61.47
2023-02-15T10:41:10.685Z,90.82
2023-02-15T10:44:23.399Z,56.63
2023-02-15T10:48:02.680Z,53.70
2023-02-15T10:51:09.096Z,75.40
2023-02-15T10:54:38.109Z,89.30
2023-02-15T10:58:13.645Z,75.18
2023-02-15T11:01:26.329Z,47.20
2023-02-15T11:04:56.089Z,60.10
2023-02-15T11:08:01.318Z,56.85
2023-02-15T11:11:07.686Z,59.28
2023-02-15T11:14:39.401Z,47.38
2023-02-15T11:17:47.728Z,60.25
2023-02-15T11:21:12.188Z,56.10
2023-02-15T11:24:17.330Z,42.08
2023-02-15T11:27:34.771Z,53.50
2023-02-15T11:30:46.885Z,42.25
2023-02-15T11:33:55.378Z,47.55
2023-02-15T11:37:01.124Z,47.97
2023-02-15T11:40:03.357Z,52.75
2023-02-15T11:43:13.664Z,40.65
2023-02-15T11:46:15.090Z,44.20
2023-02-15T11:49:33.108Z,51.00
2023-02-15T11:52:34.592Z,46.03
2023-02-15T11:55:36.290Z,42.28
2023-02-15T11:58:44.966Z,50.67
2023-02-15T12:01:47.452Z,44.65
2023-02-15T12:05:07.763Z,50.58
2023-02-15T12:08:37.172Z,45.47
2023-02-15T12:11:40.861Z,43.17
2023-02-15T12:14:51.012Z,51.00
2023-02-15T12:17:54.684Z,47.92
2023-02-15T12:21:01.823Z,46.65
2023-02-15T12:24:24.313Z,46.95
2023-02-15T12:27:29.249Z,48.60
2023-02-15T12:30:36.758Z,50.45
2023-02-15T12:33:44.719Z,61.53
2023-02-15T12:36:49.713Z,50.33
2023-02-15T12:40:01.547Z,50.05
2023-02-15T12:43:08.918Z,50.28
2023-02-15T12:46:25.629Z,51.28
2023-02-15T12:49:29.746Z,52.70
2023-02-15T12:52:31.192Z,54.28
2023-02-15T12:55:32.675Z,48.80
2023-02-15T12:58:38.043Z,44.33
2023-02-15T13:01:39.644Z,47.67
2023-02-15T13:04:49.462Z,47.22
2023-02-15T13:07:54.741Z,50.42
2023-02-15T13:11:12.409Z,48.05
2023-02-15T13:14:20.088Z,45.55
2023-02-15T13:17:26.853Z,50.50
2023-02-15T13:20:29.490Z,44.47
2023-02-15T13:23:36.366Z,46.67
2023-02-15T13:26:37.989Z,43.90
2023-02-15T13:29:40.378Z,41.95
2023-02-15T13:32:42.929Z,44.75
2023-02-15T13:36:05.393Z,44.93
2023-02-15T13:39:19.362Z,46.58
2023-02-15T13:42:27.313Z,43.67
2023-02-15T13:45:39.011Z,44.55
2023-02-15T13:48:59.314Z,47.70
2023-02-15T13:52:18.180Z,47.53
2023-02-15T13:55:39.299Z,47.88
2023-02-15T13:58:59.671Z,48.15
2023-02-15T14:02:39.438Z,48.58
2023-02-15T14:06:04.861Z,45.10
2023-02-15T14:09:34.066Z,49.42
2023-02-15T14:12:54.004Z,46.60
2023-02-15T14:16:15.792Z,48.30
2023-02-15T14:19:38.657Z,45.58
2023-02-15T14:22:45.157Z,45.10
2023-02-15T14:25:54.643Z,46.58
2023-02-15T14:29:02.505Z,47.75
2023-02-15T14:32:14.366Z,47.85
2023-02-15T14:35:18.808Z,50.53
2023-02-15T14:38:38.491Z,47.65
2023-02-15T14:41:50.832Z,50.63
2023-02-15T14:45:02.476Z,51.85
2023-02-15T14:48:24.353Z,51.55
2023-02-15T14:51:40.941Z,50.75
2023-02-15T14:54:42.306Z,52.60
2023-02-15T14:57:57.985Z,53.33
2023-02-15T15:01:11.178Z,51.72
2023-02-15T15:04:26.583Z,51.30
2023-02-15T15:07:57.873Z,49.78
2023-02-15T15:11:42.115Z,48.50
2023-02-15T15:14:45.160Z,51.95
2023-02-15T15:18:04.974Z,46.40
2023-02-15T15:21:07.962Z,47.08
2023-02-15T15:24:09.392Z,51.55
2023-02-15T15:27:46.558Z,48.60
2023-02-15T15:30:48.906Z,49.53
2023-02-15T15:34:09.099Z,50.45
2023-02-15T15:37:31.584Z,47.53
2023-02-15T15:40:49.534Z,45.80
2023-02-15T15:44:18.900Z,44.50
2023-02-15T15:47:33.053Z,43.35
2023-02-15T15:50:35.182Z,45.92
2023-02-15T15:53:44.276Z,44.97
2023-02-15T15:56:50.396Z,45.42
2023-02-15T15:59:52.213Z,45.97
2023-02-15T16:02:54.897Z,46.30
2023-02-15T16:05:57.257Z,45.58
2023-02-15T16:09:12.026Z,47.92
2023-02-15T16:12:19.679Z,44.13
2023-02-15T16:15:24.209Z,45.67
2023-02-15T16:18:27.886Z,45.13
2023-02-15T16:21:36.729Z,45.05
2023-02-15T16:25:10.473Z,45.50
2023-02-15T16:28:13.783Z,41.88
2023-02-15T16:31:17.149Z,43.85
2023-02-15T16:34:19.172Z,47.53
2023-02-15T16:37:23.159Z,54.85
2023-02-15T16:40:24.558Z,48.58
2023-02-15T16:43:30.300Z,48.28
2023-02-15T16:46:36.242Z,46.80
2023-02-15T16:49:37.878Z,44.97
2023-02-15T16:52:44.358Z,43.70
2023-02-15T16:55:51.207Z,42.40
2023-02-15T16:58:55.579Z,45.13
2023-02-15T17:01:57.510Z,44.55
2023-02-15T17:05:06.237Z,43.97
2023-02-15T17:08:14.464Z,41.70
2023-02-15T17:11:19.219Z,40.25
2023-02-15T17:14:29.525Z,40.60
2023-02-15T17:17:32.506Z,40.00
2023-02-15T17:20:37.296Z,41.33
2023-02-15T17:23:42.692Z,37.92
2023-02-15T17:26:49.632Z,42.17
2023-02-15T17:29:56.084Z,40.78
2023-02-15T17:33:01.007Z,47.90
2023-02-15T17:36:14.267Z,35.80
2023-02-15T17:39:22.772Z,35.30
2023-02-15T17:42:24.221Z,38.00
2023-02-15T17:45:32.092Z,39.35
2023-02-15T17:48:37.486Z,36.50
2023-02-15T17:51:38.989Z,42.92
2023-02-15T17:54:41.253Z,38.17
2023-02-15T17:57:42.713Z,41.88
2023-02-15T18:00:47.504Z,42.08
2023-02-15T18:03:51.767Z,42.33
2023-02-15T18:06:53.246Z,39.63
2023-02-15T18:09:54.669Z,38.67
2023-02-15T18:12:56.102Z,40.83
2023-02-15T18:15:57.819Z,40.83
2023-02-15T18:18:59.385Z,40.28
2023-02-15T18:22:00.832Z,42.70
2023-02-15T18:25:02.267Z,43.80
2023-02-15T18:28:03.772Z,42.08
2023-02-15T18:31:05.952Z,39.65
2023-02-15T18:34:33.822Z,41.83
2023-02-15T18:37:35.312Z,42.75
2023-02-15T18:40:36.750Z,44.90
2023-02-15T18:43:38.188Z,44.38
2023-02-15T18:46:39.622Z,42.72
2023-02-15T18:49:41.050Z,45.78
2023-02-15T18:52:45.030Z,42.78
2023-02-15T18:55:46.784Z,38.70
2023-02-15T18:58:48.759Z,40.70
2023-02-15T19:01:51.037Z,40.42
2023-02-15T19:04:52.479Z,39.22
2023-02-15T19:07:54.751Z,44.47
2023-02-15T19:10:56.717Z,47.10
2023-02-15T19:13:58.134Z,43.17
2023-02-15T19:17:00.597Z,42.85
2023-02-15T19:20:02.145Z,42.35
2023-02-15T19:23:05.920Z,44.15
2023-02-15T19:26:07.447Z,44.13
2023-02-15T19:29:12.397Z,46.88
2023-02-15T19:32:13.981Z,43.13
2023-02-15T19:35:17.276Z,44.75
2023-02-15T19:38:22.680Z,45.85
2023-02-15T19:41:30.588Z,45.35
2023-02-15T19:44:32.104Z,45.17
2023-02-15T19:47:33.557Z,47.45
2023-02-15T19:50:34.978Z,43.78
2023-02-15T19:53:36.451Z,44.05
2023-02-15T19:56:37.961Z,44.42
2023-02-15T19:59:40.564Z,49.20
2023-02-15T20:02:41.940Z,47.10
2023-02-15T20:05:44.367Z,45.15
2023-02-15T20:08:46.011Z,46.95
2023-02-15T20:11:47.526Z,47.13
2023-02-15T20:14:49.478Z,47.75
2023-02-15T20:17:51.162Z,49.83
2023-02-15T20:20:55.153Z,51.13
2023-02-15T20:23:56.666Z,51.55
2023-02-15T20:26:59.251Z,52.88
2023-02-15T20:30:00.760Z,51.27
2023-02-15T20:33:02.183Z,46.75
2023-02-15T20:36:03.964Z,50.70
2023-02-15T20:39:17.052Z,48.38
2023-02-15T20:42:18.990Z,45.92
2023-02-15T20:45:21.672Z,48.33
2023-02-15T20:48:23.120Z,49.30
2023-02-15T20:51:24.565Z,46.13
2023-02-15T20:54:29.278Z,54.25
2023-02-15T20:57:30.725Z,48.85
2023-02-15T21:00:32.269Z,46.00
2023-02-15T21:03:33.773Z,50.15
2023-02-15T21:06:35.245Z,46.88
2023-02-15T21:09:36.675Z,48.28
2023-02-15T21:12:38.085Z,45.85
2023-02-15T21:15:39.574Z,47.97
2023-02-15T21:18:41.096Z,44.42
2023-02-15T21:21:43.906Z,49.28
2023-02-15T21:24:50.933Z,42.53
2023-02-15T21:27:52.495Z,41.95
2023-02-15T21:30:55.352Z,46.08
2023-02-15T21:33:56.775Z,45.53
2023-02-15T21:36:58.945Z,43.25
2023-02-15T21:40:00.718Z,42.50
2023-02-15T21:43:02.189Z,44.30
2023-02-15T21:46:15.992Z,42.80
2023-02-15T21:49:17.663Z,44.47
2023-02-15T21:52:23.302Z,42.08
2023-02-15T21:55:24.951Z,47.95
2023-02-15T21:58:30.268Z,45.00
2023-02-15T22:01:31.690Z,45.55
2023-02-15T22:04:33.178Z,45.65
2023-02-15T22:07:34.600Z,40.78
2023-02-15T22:10:36.116Z,43.65
2023-02-15T22:13:38.095Z,42.45
2023-02-15T22:16:39.640Z,45.03
2023-02-15T22:19:41.850Z,40.05
2023-02-15T22:22:43.314Z,43.95
2023-02-15T22:25:51.873Z,43.25
2023-02-15T22:28:53.628Z,41.25
2023-02-15T22:31:55.147Z,47.92
2023-02-15T22:34:56.668Z,45.25
2023-02-15T22:37:58.536Z,48.38
2023-02-15T22:41:04.063Z,47.45
2023-02-15T22:44:05.917Z,42.55
2023-02-15T22:47:17.639Z,45.30
2023-02-15T22:50:22.634Z,46.05
2023-02-15T22:53:24.158Z,45.85
2023-02-15T22:56:37.323Z,44.50
2023-02-15T22:59:38.769Z,45.65
2023-02-15T23:02:40.201Z,43.53
2023-02-15T23:05:41.758Z,46.60
2023-02-15T23:08:43.270Z,45.13
2023-02-15T23:11:44.985Z,44.80
2023-02-15T23:14:46.492Z,48.78
2023-02-15T23:17:47.909Z,43.45
2023-02-15T23:21:00.101Z,44.50
2023-02-15T23:24:17.415Z,46.90
2023-02-15T23:27:19.545Z,44.75
2023-02-15T23:30:21.204Z,49.03
2023-02-15T23:33:27.890Z,47.45
2023-02-15T23:36:35.419Z,43.00
2023-02-15T23:39:36.876Z,43.80
2023-02-15T23:42:38.298Z,49.47
2023-02-15T23:45:39.871Z,43.15
2023-02-15T23:48:41.286Z,47.17
2023-02-15T23:51:48.050Z,48.03
2023-02-15T23:54:49.450Z,43.83
2023-02-15T23:57:51.009Z,40.35
